sensor_id;sensor_type;location;lat;lon;timestamp;temperature;humidity
32865;DHT22;19219;44.500;11.188;2023-05-10T00:02:46;16.20;99.90
32865;DHT22;19219;44.500;11.188;2023-05-10T00:05:12;16.20;99.90
32865;DHT22;19219;44.500;11.188;2023-05-10T00:07:38;16.20;99.90
32865;DHT22;19219;44.500;11.188;2023-05-10T00:10:03;16.20;99.90
32865;DHT22;19219;44.500;11.188;2023-05-10T00:12:29;16.20;99.90
32865;DHT22;19219;44.500;11.188;2023-05-10T00:14:55;16.20;99.90
32865;DHT22;19219;44.500;11.188;2023-05-10T00:17:20;16.20;99.90
32865;DHT22;19219;44.500;11.188;2023-05-10T00:19:46;16.30;99.90
32865;DHT22;19219;44.500;11.188;2023-05-10T00:22:12;16.30;99.90
32865;DHT22;19219;44.500;11.188;2023-05-10T00:24:37;16.30;99.90
32865;DHT22;19219;44.500;11.188;2023-05-10T00:27:03;16.30;99.90
32865;DHT22;19219;44.500;11.188;2023-05-10T00:29:29;16.30;99.90
32865;DHT22;19219;44.500;11.188;2023-05-10T00:31:55;16.30;99.90
32865;DHT22;19219;44.500;11.188;2023-05-10T00:34:20;16.30;99.90
32865;DHT22;19219;44.500;11.188;2023-05-10T00:36:46;16.20;99.90
32865;DHT22;19219;44.500;11.188;2023-05-10T00:39:11;16.20;99.90
32865;DHT22;19219;44.500;11.188;2023-05-10T00:41:38;16.30;99.90
32865;DHT22;19219;44.500;11.188;2023-05-10T00:44:03;16.30;99.90
32865;DHT22;19219;44.500;11.188;2023-05-10T00:46:29;16.20;99.90
32865;DHT22;19219;44.500;11.188;2023-05-10T00:48:55;16.10;99.90
32865;DHT22;19219;44.500;11.188;2023-05-10T00:51:21;16.10;99.90
32865;DHT22;19219;44.500;11.188;2023-05-10T00:53:47;16.10;99.90
32865;DHT22;19219;44.500;11.188;2023-05-10T00:56:13;16.10;99.90
32865;DHT22;19219;44.500;11.188;2023-05-10T00:58:40;16.00;99.90
32865;DHT22;19219;44.500;11.188;2023-05-10T01:01:06;16.10;99.90
32865;DHT22;19219;44.500;11.188;2023-05-10T01:03:33;16.00;99.90
32865;DHT22;19219;44.500;11.188;2023-05-10T01:05:58;16.00;99.90
32865;DHT22;19219;44.500;11.188;2023-05-10T01:08:25;15.90;99.90
32865;DHT22;19219;44.500;11.188;2023-05-10T01:10:51;16.00;99.90
32865;DHT22;19219;44.500;11.188;2023-05-10T01:13:36;15.90;99.90
32865;DHT22;19219;44.500;11.188;2023-05-10T01:16:03;15.90;99.90
32865;DHT22;19219;44.500;11.188;2023-05-10T01:18:38;15.90;99.90
32865;DHT22;19219;44.500;11.188;2023-05-10T01:21:22;15.90;99.90
32865;DHT22;19219;44.500;11.188;2023-05-10T01:27:14;16.00;99.90
32865;DHT22;19219;44.500;11.188;2023-05-10T01:32:57;15.90;99.90
32865;DHT22;19219;44.500;11.188;2023-05-10T01:41:16;15.90;99.90
32865;DHT22;19219;44.500;11.188;2023-05-10T01:44:06;15.80;99.90
32865;DHT22;19219;44.500;11.188;2023-05-10T01:46:36;15.90;99.90
32865;DHT22;19219;44.500;11.188;2023-05-10T01:49:07;15.90;99.90
32865;DHT22;19219;44.500;11.188;2023-05-10T01:51:50;15.90;99.90
32865;DHT22;19219;44.500;11.188;2023-05-10T01:54:21;15.90;99.90
32865;DHT22;19219;44.500;11.188;2023-05-10T01:56:56;15.90;99.90
32865;DHT22;19219;44.500;11.188;2023-05-10T01:59:27;15.90;99.90
32865;DHT22;19219;44.500;11.188;2023-05-10T02:01:54;15.90;99.90
32865;DHT22;19219;44.500;11.188;2023-05-10T02:04:23;15.80;99.90
32865;DHT22;19219;44.500;11.188;2023-05-10T02:06:51;15.80;99.90
32865;DHT22;19219;44.500;11.188;2023-05-10T02:09:20;15.80;99.90
32865;DHT22;19219;44.500;11.188;2023-05-10T02:11:48;15.80;99.90
32865;DHT22;19219;44.500;11.188;2023-05-10T02:14:14;15.80;99.90
32865;DHT22;19219;44.500;11.188;2023-05-10T02:16:41;15.80;99.90
32865;DHT22;19219;44.500;11.188;2023-05-10T02:19:09;15.80;99.90
32865;DHT22;19219;44.500;11.188;2023-05-10T02:21:36;15.80;99.90
32865;DHT22;19219;44.500;11.188;2023-05-10T02:24:03;15.80;99.90
32865;DHT22;19219;44.500;11.188;2023-05-10T02:26:31;15.80;99.90
32865;DHT22;19219;44.500;11.188;2023-05-10T02:28:59;15.80;99.90
32865;DHT22;19219;44.500;11.188;2023-05-10T02:31:26;15.80;99.90
32865;DHT22;19219;44.500;11.188;2023-05-10T02:33:52;15.80;99.90
32865;DHT22;19219;44.500;11.188;2023-05-10T02:36:19;15.80;99.90
32865;DHT22;19219;44.500;11.188;2023-05-10T02:38:47;15.80;99.90
32865;DHT22;19219;44.500;11.188;2023-05-10T02:41:13;15.80;99.90
32865;DHT22;19219;44.500;11.188;2023-05-10T02:43:40;15.80;99.90
32865;DHT22;19219;44.500;11.188;2023-05-10T02:46:06;15.80;99.90
32865;DHT22;19219;44.500;11.188;2023-05-10T02:48:31;15.80;99.90
32865;DHT22;19219;44.500;11.188;2023-05-10T02:51:03;15.80;99.90
32865;DHT22;19219;44.500;11.188;2023-05-10T02:53:35;15.70;99.90
32865;DHT22;19219;44.500;11.188;2023-05-10T02:56:05;15.70;99.90
32865;DHT22;19219;44.500;11.188;2023-05-10T02:58:32;15.70;99.90
32865;DHT22;19219;44.500;11.188;2023-05-10T03:00:59;15.70;99.90
32865;DHT22;19219;44.500;11.188;2023-05-10T03:03:25;15.70;99.90
32865;DHT22;19219;44.500;11.188;2023-05-10T03:05:51;15.70;99.90
32865;DHT22;19219;44.500;11.188;2023-05-10T03:08:19;15.60;99.90
32865;DHT22;19219;44.500;11.188;2023-05-10T03:13:44;15.50;99.90
32865;DHT22;19219;44.500;11.188;2023-05-10T03:16:27;15.50;99.90
32865;DHT22;19219;44.500;11.188;2023-05-10T03:19:11;15.40;99.90
32865;DHT22;19219;44.500;11.188;2023-05-10T03:21:41;15.40;99.90
32865;DHT22;19219;44.500;11.188;2023-05-10T03:24:09;15.40;99.90
32865;DHT22;19219;44.500;11.188;2023-05-10T03:26:37;15.40;99.90
32865;DHT22;19219;44.500;11.188;2023-05-10T03:29:05;15.30;99.90
32865;DHT22;19219;44.500;11.188;2023-05-10T03:31:32;15.30;99.90
32865;DHT22;19219;44.500;11.188;2023-05-10T03:33:57;15.30;99.90
32865;DHT22;19219;44.500;11.188;2023-05-10T03:36:23;15.30;99.90
32865;DHT22;19219;44.500;11.188;2023-05-10T03:38:49;15.20;99.90
32865;DHT22;19219;44.500;11.188;2023-05-10T03:41:15;15.20;99.90
32865;DHT22;19219;44.500;11.188;2023-05-10T03:43:40;15.10;99.90
32865;DHT22;19219;44.500;11.188;2023-05-10T03:46:06;15.10;99.90
32865;DHT22;19219;44.500;11.188;2023-05-10T03:48:32;15.00;99.90
32865;DHT22;19219;44.500;11.188;2023-05-10T03:50:58;15.00;99.90
32865;DHT22;19219;44.500;11.188;2023-05-10T03:53:24;15.00;99.90
32865;DHT22;19219;44.500;11.188;2023-05-10T03:55:50;14.90;99.90
32865;DHT22;19219;44.500;11.188;2023-05-10T03:58:16;14.90;99.90
32865;DHT22;19219;44.500;11.188;2023-05-10T04:00:41;14.80;99.90
32865;DHT22;19219;44.500;11.188;2023-05-10T04:03:10;14.80;99.90
32865;DHT22;19219;44.500;11.188;2023-05-10T04:05:36;14.70;99.90
32865;DHT22;19219;44.500;11.188;2023-05-10T04:08:02;14.70;99.90
32865;DHT22;19219;44.500;11.188;2023-05-10T04:10:28;14.70;99.90
32865;DHT22;19219;44.500;11.188;2023-05-10T04:12:54;14.70;99.90
32865;DHT22;19219;44.500;11.188;2023-05-10T04:15:19;14.70;99.90
32865;DHT22;19219;44.500;11.188;2023-05-10T04:17:45;14.60;99.90
32865;DHT22;19219;44.500;11.188;2023-05-10T04:20:11;14.50;99.90
32865;DHT22;19219;44.500;11.188;2023-05-10T04:22:37;14.50;99.90
32865;DHT22;19219;44.500;11.188;2023-05-10T04:25:04;14.50;99.90
32865;DHT22;19219;44.500;11.188;2023-05-10T04:27:30;14.50;99.90
32865;DHT22;19219;44.500;11.188;2023-05-10T04:29:56;14.50;99.90
32865;DHT22;19219;44.500;11.188;2023-05-10T04:32:22;14.50;99.90
32865;DHT22;19219;44.500;11.188;2023-05-10T04:34:48;14.50;99.90
32865;DHT22;19219;44.500;11.188;2023-05-10T04:37:14;14.50;99.90
32865;DHT22;19219;44.500;11.188;2023-05-10T04:39:40;14.50;99.90
32865;DHT22;19219;44.500;11.188;2023-05-10T04:42:05;14.50;99.90
32865;DHT22;19219;44.500;11.188;2023-05-10T04:44:32;14.50;99.90
32865;DHT22;19219;44.500;11.188;2023-05-10T04:46:58;14.50;99.90
32865;DHT22;19219;44.500;11.188;2023-05-10T04:49:24;14.60;99.90
32865;DHT22;19219;44.500;11.188;2023-05-10T04:51:49;14.60;99.90
32865;DHT22;19219;44.500;11.188;2023-05-10T04:54:15;14.50;99.90
32865;DHT22;19219;44.500;11.188;2023-05-10T04:56:41;14.50;99.90
32865;DHT22;19219;44.500;11.188;2023-05-10T04:59:06;14.60;99.90
32865;DHT22;19219;44.500;11.188;2023-05-10T05:01:32;14.60;99.90
32865;DHT22;19219;44.500;11.188;2023-05-10T05:03:58;14.50;99.90
32865;DHT22;19219;44.500;11.188;2023-05-10T05:06:24;14.50;99.90
32865;DHT22;19219;44.500;11.188;2023-05-10T05:08:50;14.50;99.90
32865;DHT22;19219;44.500;11.188;2023-05-10T05:11:17;14.50;99.90
32865;DHT22;19219;44.500;11.188;2023-05-10T05:13:43;14.50;99.90
32865;DHT22;19219;44.500;11.188;2023-05-10T05:16:09;14.50;99.90
32865;DHT22;19219;44.500;11.188;2023-05-10T05:18:35;14.50;99.90
32865;DHT22;19219;44.500;11.188;2023-05-10T05:21:01;14.50;99.90
32865;DHT22;19219;44.500;11.188;2023-05-10T05:23:26;14.40;99.90
32865;DHT22;19219;44.500;11.188;2023-05-10T05:25:53;14.40;99.90
32865;DHT22;19219;44.500;11.188;2023-05-10T05:28:20;14.40;99.90
32865;DHT22;19219;44.500;11.188;2023-05-10T05:30:45;14.50;99.90
32865;DHT22;19219;44.500;11.188;2023-05-10T05:33:13;14.50;99.90
32865;DHT22;19219;44.500;11.188;2023-05-10T05:35:39;14.40;99.90
32865;DHT22;19219;44.500;11.188;2023-05-10T05:38:04;14.40;99.90
32865;DHT22;19219;44.500;11.188;2023-05-10T05:40:31;14.40;99.90
32865;DHT22;19219;44.500;11.188;2023-05-10T05:42:57;14.50;99.90
32865;DHT22;19219;44.500;11.188;2023-05-10T05:45:22;14.50;99.90
32865;DHT22;19219;44.500;11.188;2023-05-10T05:47:48;14.50;99.90
32865;DHT22;19219;44.500;11.188;2023-05-10T05:50:13;14.50;99.90
32865;DHT22;19219;44.500;11.188;2023-05-10T05:52:39;14.50;99.90
32865;DHT22;19219;44.500;11.188;2023-05-10T05:55:05;14.50;99.90
32865;DHT22;19219;44.500;11.188;2023-05-10T05:57:31;14.60;99.90
32865;DHT22;19219;44.500;11.188;2023-05-10T05:59:57;14.60;99.90
32865;DHT22;19219;44.500;11.188;2023-05-10T06:02:22;14.50;99.90
32865;DHT22;19219;44.500;11.188;2023-05-10T06:04:48;14.50;99.90
32865;DHT22;19219;44.500;11.188;2023-05-10T06:07:14;14.50;99.90
32865;DHT22;19219;44.500;11.188;2023-05-10T06:09:39;14.50;99.90
32865;DHT22;19219;44.500;11.188;2023-05-10T06:12:05;14.60;99.90
32865;DHT22;19219;44.500;11.188;2023-05-10T06:14:31;14.60;99.90
32865;DHT22;19219;44.500;11.188;2023-05-10T06:16:56;14.60;99.90
32865;DHT22;19219;44.500;11.188;2023-05-10T06:19:22;14.60;99.90
32865;DHT22;19219;44.500;11.188;2023-05-10T06:21:48;14.50;99.90
32865;DHT22;19219;44.500;11.188;2023-05-10T06:24:13;14.50;99.90
32865;DHT22;19219;44.500;11.188;2023-05-10T06:26:39;14.50;99.90
32865;DHT22;19219;44.500;11.188;2023-05-10T06:29:04;14.40;99.90
32865;DHT22;19219;44.500;11.188;2023-05-10T06:31:30;14.50;99.90
32865;DHT22;19219;44.500;11.188;2023-05-10T06:33:56;14.60;99.90
32865;DHT22;19219;44.500;11.188;2023-05-10T06:36:21;14.60;99.90
32865;DHT22;19219;44.500;11.188;2023-05-10T06:38:47;14.70;99.90
32865;DHT22;19219;44.500;11.188;2023-05-10T06:41:13;14.70;99.90
32865;DHT22;19219;44.500;11.188;2023-05-10T06:43:38;14.70;99.90
32865;DHT22;19219;44.500;11.188;2023-05-10T06:46:06;14.70;99.90
32865;DHT22;19219;44.500;11.188;2023-05-10T06:48:32;14.70;99.90
32865;DHT22;19219;44.500;11.188;2023-05-10T06:50:58;14.70;99.90
32865;DHT22;19219;44.500;11.188;2023-05-10T06:53:24;14.60;99.90
32865;DHT22;19219;44.500;11.188;2023-05-10T06:55:50;14.60;99.90
32865;DHT22;19219;44.500;11.188;2023-05-10T06:58:15;14.70;99.90
32865;DHT22;19219;44.500;11.188;2023-05-10T07:00:41;14.70;99.90
32865;DHT22;19219;44.500;11.188;2023-05-10T07:03:09;14.60;99.90
32865;DHT22;19219;44.500;11.188;2023-05-10T07:05:35;14.60;99.90
32865;DHT22;19219;44.500;11.188;2023-05-10T07:08:00;14.60;99.90
32865;DHT22;19219;44.500;11.188;2023-05-10T07:10:26;14.60;99.90
32865;DHT22;19219;44.500;11.188;2023-05-10T07:12:52;14.60;99.90
32865;DHT22;19219;44.500;11.188;2023-05-10T07:15:18;14.50;99.90
32865;DHT22;19219;44.500;11.188;2023-05-10T07:17:44;14.50;99.90
32865;DHT22;19219;44.500;11.188;2023-05-10T07:20:10;14.60;99.90
32865;DHT22;19219;44.500;11.188;2023-05-10T07:22:35;14.70;99.90
32865;DHT22;19219;44.500;11.188;2023-05-10T07:25:01;14.70;99.90
32865;DHT22;19219;44.500;11.188;2023-05-10T07:27:27;14.70;99.90
32865;DHT22;19219;44.500;11.188;2023-05-10T07:29:53;14.60;99.90
32865;DHT22;19219;44.500;11.188;2023-05-10T07:32:20;14.70;99.90
32865;DHT22;19219;44.500;11.188;2023-05-10T07:34:45;14.70;99.90
32865;DHT22;19219;44.500;11.188;2023-05-10T07:37:11;14.70;99.90
32865;DHT22;19219;44.500;11.188;2023-05-10T07:39:37;14.70;99.90
32865;DHT22;19219;44.500;11.188;2023-05-10T07:42:03;14.70;99.90
32865;DHT22;19219;44.500;11.188;2023-05-10T07:44:29;14.70;99.90
32865;DHT22;19219;44.500;11.188;2023-05-10T07:46:54;14.70;99.90
32865;DHT22;19219;44.500;11.188;2023-05-10T07:49:21;14.80;99.90
32865;DHT22;19219;44.500;11.188;2023-05-10T07:51:46;14.70;99.90
32865;DHT22;19219;44.500;11.188;2023-05-10T07:54:13;14.70;99.90
32865;DHT22;19219;44.500;11.188;2023-05-10T07:56:39;14.70;99.90
32865;DHT22;19219;44.500;11.188;2023-05-10T07:59:10;14.70;99.90
32865;DHT22;19219;44.500;11.188;2023-05-10T08:01:35;14.60;99.90
32865;DHT22;19219;44.500;11.188;2023-05-10T08:04:01;14.60;99.90
32865;DHT22;19219;44.500;11.188;2023-05-10T08:06:27;14.60;99.90
32865;DHT22;19219;44.500;11.188;2023-05-10T08:08:55;14.80;99.90
32865;DHT22;19219;44.500;11.188;2023-05-10T08:11:21;14.80;99.90
32865;DHT22;19219;44.500;11.188;2023-05-10T08:13:47;14.80;99.90
32865;DHT22;19219;44.500;11.188;2023-05-10T08:16:13;14.80;99.90
32865;DHT22;19219;44.500;11.188;2023-05-10T08:18:39;14.70;99.90
32865;DHT22;19219;44.500;11.188;2023-05-10T08:21:06;14.70;99.90
32865;DHT22;19219;44.500;11.188;2023-05-10T08:23:32;14.70;99.90
32865;DHT22;19219;44.500;11.188;2023-05-10T08:25:57;14.70;99.90
32865;DHT22;19219;44.500;11.188;2023-05-10T08:28:23;14.70;99.90
32865;DHT22;19219;44.500;11.188;2023-05-10T08:30:50;14.70;99.90
32865;DHT22;19219;44.500;11.188;2023-05-10T08:33:17;14.80;99.90
32865;DHT22;19219;44.500;11.188;2023-05-10T08:35:43;14.70;99.90
32865;DHT22;19219;44.500;11.188;2023-05-10T08:38:09;14.60;99.90
32865;DHT22;19219;44.500;11.188;2023-05-10T08:40:36;14.70;99.90
32865;DHT22;19219;44.500;11.188;2023-05-10T08:43:08;14.70;99.90
32865;DHT22;19219;44.500;11.188;2023-05-10T08:45:40;14.80;99.90
32865;DHT22;19219;44.500;11.188;2023-05-10T08:48:07;14.90;99.90
32865;DHT22;19219;44.500;11.188;2023-05-10T08:50:38;14.90;99.90
32865;DHT22;19219;44.500;11.188;2023-05-10T08:53:11;15.00;99.90
32865;DHT22;19219;44.500;11.188;2023-05-10T08:55:38;15.00;99.90
32865;DHT22;19219;44.500;11.188;2023-05-10T08:58:06;15.10;99.90
32865;DHT22;19219;44.500;11.188;2023-05-10T09:00:32;15.20;99.90
32865;DHT22;19219;44.500;11.188;2023-05-10T09:02:59;15.10;99.90
32865;DHT22;19219;44.500;11.188;2023-05-10T09:05:25;15.20;99.90
32865;DHT22;19219;44.500;11.188;2023-05-10T09:07:51;15.10;99.90
32865;DHT22;19219;44.500;11.188;2023-05-10T09:10:17;15.10;99.90
32865;DHT22;19219;44.500;11.188;2023-05-10T09:12:43;15.20;99.90
32865;DHT22;19219;44.500;11.188;2023-05-10T09:15:10;15.20;99.90
32865;DHT22;19219;44.500;11.188;2023-05-10T09:17:38;15.20;99.90
32865;DHT22;19219;44.500;11.188;2023-05-10T09:20:06;15.20;99.90
32865;DHT22;19219;44.500;11.188;2023-05-10T09:22:35;15.20;99.90
32865;DHT22;19219;44.500;11.188;2023-05-10T09:27:30;15.20;99.90
32865;DHT22;19219;44.500;11.188;2023-05-10T09:29:56;15.20;99.90
32865;DHT22;19219;44.500;11.188;2023-05-10T09:32:21;15.10;99.90
32865;DHT22;19219;44.500;11.188;2023-05-10T09:34:49;15.00;99.90
32865;DHT22;19219;44.500;11.188;2023-05-10T09:37:15;14.90;99.90
32865;DHT22;19219;44.500;11.188;2023-05-10T09:39:41;14.90;99.90
32865;DHT22;19219;44.500;11.188;2023-05-10T09:42:09;14.70;99.90
32865;DHT22;19219;44.500;11.188;2023-05-10T09:44:35;14.50;99.90
32865;DHT22;19219;44.500;11.188;2023-05-10T09:47:01;14.40;99.90
32865;DHT22;19219;44.500;11.188;2023-05-10T09:49:27;14.30;99.90
32865;DHT22;19219;44.500;11.188;2023-05-10T09:52:05;14.20;99.90
32865;DHT22;19219;44.500;11.188;2023-05-10T09:54:31;14.20;99.90
32865;DHT22;19219;44.500;11.188;2023-05-10T09:56:57;14.20;99.90
32865;DHT22;19219;44.500;11.188;2023-05-10T09:59:25;14.10;99.90
32865;DHT22;19219;44.500;11.188;2023-05-10T10:01:55;14.00;99.90
32865;DHT22;19219;44.500;11.188;2023-05-10T10:04:22;14.10;99.90
32865;DHT22;19219;44.500;11.188;2023-05-10T10:07:04;14.10;99.90
32865;DHT22;19219;44.500;11.188;2023-05-10T10:09:30;14.10;99.90
32865;DHT22;19219;44.500;11.188;2023-05-10T10:11:56;14.00;99.90
32865;DHT22;19219;44.500;11.188;2023-05-10T10:14:23;14.10;99.90
32865;DHT22;19219;44.500;11.188;2023-05-10T10:16:49;14.00;99.90
32865;DHT22;19219;44.500;11.188;2023-05-10T10:19:18;14.10;99.90
32865;DHT22;19219;44.500;11.188;2023-05-10T10:21:43;14.10;99.90
32865;DHT22;19219;44.500;11.188;2023-05-10T10:24:09;14.20;99.90
32865;DHT22;19219;44.500;11.188;2023-05-10T10:26:36;14.20;99.90
32865;DHT22;19219;44.500;11.188;2023-05-10T10:29:16;14.30;99.90
32865;DHT22;19219;44.500;11.188;2023-05-10T10:32:12;14.40;99.90
32865;DHT22;19219;44.500;11.188;2023-05-10T10:34:42;14.20;99.90
32865;DHT22;19219;44.500;11.188;2023-05-10T10:37:09;14.20;99.90
32865;DHT22;19219;44.500;11.188;2023-05-10T10:39:36;14.20;99.90
32865;DHT22;19219;44.500;11.188;2023-05-10T10:42:03;14.10;99.90
32865;DHT22;19219;44.500;11.188;2023-05-10T10:49:44;14.10;99.90
32865;DHT22;19219;44.500;11.188;2023-05-10T10:57:33;14.10;99.90
32865;DHT22;19219;44.500;11.188;2023-05-10T11:00:35;14.10;99.90
32865;DHT22;19219;44.500;11.188;2023-05-10T11:03:10;14.10;99.90
32865;DHT22;19219;44.500;11.188;2023-05-10T11:05:47;14.10;99.90
32865;DHT22;19219;44.500;11.188;2023-05-10T11:10:51;13.90;99.90
32865;DHT22;19219;44.500;11.188;2023-05-10T11:13:45;13.90;99.90
32865;DHT22;19219;44.500;11.188;2023-05-10T11:18:37;13.80;99.90
32865;DHT22;19219;44.500;11.188;2023-05-10T11:21:03;13.80;99.90
32865;DHT22;19219;44.500;11.188;2023-05-10T11:23:32;13.70;99.90
32865;DHT22;19219;44.500;11.188;2023-05-10T11:25:59;13.70;99.90
32865;DHT22;19219;44.500;11.188;2023-05-10T11:28:26;13.60;99.90
32865;DHT22;19219;44.500;11.188;2023-05-10T11:30:52;13.60;99.90
32865;DHT22;19219;44.500;11.188;2023-05-10T11:33:19;13.50;99.90
32865;DHT22;19219;44.500;11.188;2023-05-10T11:35:45;13.50;99.90
32865;DHT22;19219;44.500;11.188;2023-05-10T11:38:12;13.50;99.90
32865;DHT22;19219;44.500;11.188;2023-05-10T11:40:38;13.50;99.90
32865;DHT22;19219;44.500;11.188;2023-05-10T11:43:05;13.40;99.90
32865;DHT22;19219;44.500;11.188;2023-05-10T11:45:34;13.50;99.90
32865;DHT22;19219;44.500;11.188;2023-05-10T11:48:01;13.40;99.90
32865;DHT22;19219;44.500;11.188;2023-05-10T11:50:27;13.40;99.90
32865;DHT22;19219;44.500;11.188;2023-05-10T11:52:54;13.40;99.90
32865;DHT22;19219;44.500;11.188;2023-05-10T11:55:20;13.40;99.90
32865;DHT22;19219;44.500;11.188;2023-05-10T11:57:47;13.40;99.90
32865;DHT22;19219;44.500;11.188;2023-05-10T12:00:14;13.50;99.90
32865;DHT22;19219;44.500;11.188;2023-05-10T12:02:39;13.40;99.90
32865;DHT22;19219;44.500;11.188;2023-05-10T12:05:06;13.40;99.90
32865;DHT22;19219;44.500;11.188;2023-05-10T12:07:32;13.40;99.90
32865;DHT22;19219;44.500;11.188;2023-05-10T12:10:11;13.40;99.90
32865;DHT22;19219;44.500;11.188;2023-05-10T12:12:41;13.30;99.90
32865;DHT22;19219;44.500;11.188;2023-05-10T12:15:16;13.40;99.90
32865;DHT22;19219;44.500;11.188;2023-05-10T12:17:44;13.30;99.90
32865;DHT22;19219;44.500;11.188;2023-05-10T12:20:28;13.30;99.90
32865;DHT22;19219;44.500;11.188;2023-05-10T12:22:55;13.40;99.90
32865;DHT22;19219;44.500;11.188;2023-05-10T12:25:23;13.30;99.90
32865;DHT22;19219;44.500;11.188;2023-05-10T12:27:51;13.40;99.90
32865;DHT22;19219;44.500;11.188;2023-05-10T12:30:25;13.40;99.90
32865;DHT22;19219;44.500;11.188;2023-05-10T12:32:51;13.40;99.90
32865;DHT22;19219;44.500;11.188;2023-05-10T12:35:17;13.40;99.90
32865;DHT22;19219;44.500;11.188;2023-05-10T12:37:47;13.50;99.90
32865;DHT22;19219;44.500;11.188;2023-05-10T12:40:13;13.40;99.90
32865;DHT22;19219;44.500;11.188;2023-05-10T12:42:39;13.40;99.90
32865;DHT22;19219;44.500;11.188;2023-05-10T12:45:06;13.30;99.90
32865;DHT22;19219;44.500;11.188;2023-05-10T12:47:32;13.30;99.90
32865;DHT22;19219;44.500;11.188;2023-05-10T12:49:59;13.30;99.90
32865;DHT22;19219;44.500;11.188;2023-05-10T12:52:25;13.30;99.90
32865;DHT22;19219;44.500;11.188;2023-05-10T12:54:52;13.40;99.90
32865;DHT22;19219;44.500;11.188;2023-05-10T12:57:18;13.50;99.90
32865;DHT22;19219;44.500;11.188;2023-05-10T12:59:44;13.50;99.90
32865;DHT22;19219;44.500;11.188;2023-05-10T13:02:10;13.50;99.90
32865;DHT22;19219;44.500;11.188;2023-05-10T13:04:36;13.50;99.90
32865;DHT22;19219;44.500;11.188;2023-05-10T13:07:07;13.50;99.90
32865;DHT22;19219;44.500;11.188;2023-05-10T13:09:33;13.50;99.90
32865;DHT22;19219;44.500;11.188;2023-05-10T13:11:59;13.60;99.90
32865;DHT22;19219;44.500;11.188;2023-05-10T13:14:25;13.70;99.90
32865;DHT22;19219;44.500;11.188;2023-05-10T13:16:50;13.70;99.90
32865;DHT22;19219;44.500;11.188;2023-05-10T13:19:17;13.70;99.90
32865;DHT22;19219;44.500;11.188;2023-05-10T13:21:43;13.70;99.90
32865;DHT22;19219;44.500;11.188;2023-05-10T13:24:10;13.70;99.90
32865;DHT22;19219;44.500;11.188;2023-05-10T13:26:36;13.70;99.90
32865;DHT22;19219;44.500;11.188;2023-05-10T13:29:03;13.70;99.90
32865;DHT22;19219;44.500;11.188;2023-05-10T13:31:28;13.80;99.90
32865;DHT22;19219;44.500;11.188;2023-05-10T13:33:54;13.90;99.90
32865;DHT22;19219;44.500;11.188;2023-05-10T13:36:20;14.00;99.90
32865;DHT22;19219;44.500;11.188;2023-05-10T13:38:46;14.10;99.90
32865;DHT22;19219;44.500;11.188;2023-05-10T13:41:11;14.10;99.90
32865;DHT22;19219;44.500;11.188;2023-05-10T13:43:37;14.10;99.90
32865;DHT22;19219;44.500;11.188;2023-05-10T13:46:03;14.20;99.90
32865;DHT22;19219;44.500;11.188;2023-05-10T13:48:28;14.20;99.90
32865;DHT22;19219;44.500;11.188;2023-05-10T13:50:55;14.20;99.90
32865;DHT22;19219;44.500;11.188;2023-05-10T13:53:21;14.20;99.90
32865;DHT22;19219;44.500;11.188;2023-05-10T13:55:47;14.10;99.90
32865;DHT22;19219;44.500;11.188;2023-05-10T13:58:12;14.00;99.90
32865;DHT22;19219;44.500;11.188;2023-05-10T14:00:38;13.80;99.90
32865;DHT22;19219;44.500;11.188;2023-05-10T14:03:04;13.70;99.90
32865;DHT22;19219;44.500;11.188;2023-05-10T14:05:30;13.70;99.90
32865;DHT22;19219;44.500;11.188;2023-05-10T14:07:56;13.70;99.90
32865;DHT22;19219;44.500;11.188;2023-05-10T14:10:22;13.60;99.90
32865;DHT22;19219;44.500;11.188;2023-05-10T14:12:49;13.60;99.90
32865;DHT22;19219;44.500;11.188;2023-05-10T14:15:15;13.60;99.90
32865;DHT22;19219;44.500;11.188;2023-05-10T14:17:41;13.60;99.90
32865;DHT22;19219;44.500;11.188;2023-05-10T14:20:08;13.50;99.90
32865;DHT22;19219;44.500;11.188;2023-05-10T14:22:34;13.60;99.90
32865;DHT22;19219;44.500;11.188;2023-05-10T14:25:00;13.50;99.90
32865;DHT22;19219;44.500;11.188;2023-05-10T14:27:26;13.60;99.90
32865;DHT22;19219;44.500;11.188;2023-05-10T14:29:52;13.70;99.90
32865;DHT22;19219;44.500;11.188;2023-05-10T14:32:18;13.80;99.90
32865;DHT22;19219;44.500;11.188;2023-05-10T14:34:44;13.70;99.90
32865;DHT22;19219;44.500;11.188;2023-05-10T14:37:13;13.70;99.90
32865;DHT22;19219;44.500;11.188;2023-05-10T14:39:39;13.80;99.90
32865;DHT22;19219;44.500;11.188;2023-05-10T14:42:04;13.80;99.90
32865;DHT22;19219;44.500;11.188;2023-05-10T14:44:30;13.70;99.90
32865;DHT22;19219;44.500;11.188;2023-05-10T14:46:56;13.80;99.90
32865;DHT22;19219;44.500;11.188;2023-05-10T14:49:22;13.80;99.90
32865;DHT22;19219;44.500;11.188;2023-05-10T14:51:50;13.70;99.90
32865;DHT22;19219;44.500;11.188;2023-05-10T14:54:16;13.70;99.90
32865;DHT22;19219;44.500;11.188;2023-05-10T14:56:42;13.70;99.90
32865;DHT22;19219;44.500;11.188;2023-05-10T14:59:08;13.70;99.90
32865;DHT22;19219;44.500;11.188;2023-05-10T15:01:34;13.70;99.90
32865;DHT22;19219;44.500;11.188;2023-05-10T15:04:04;13.70;99.90
32865;DHT22;19219;44.500;11.188;2023-05-10T15:06:34;13.70;99.90
32865;DHT22;19219;44.500;11.188;2023-05-10T15:09:01;13.80;99.90
32865;DHT22;19219;44.500;11.188;2023-05-10T15:11:28;13.80;99.90
32865;DHT22;19219;44.500;11.188;2023-05-10T15:13:54;13.90;99.90
32865;DHT22;19219;44.500;11.188;2023-05-10T15:16:20;14.00;99.90
32865;DHT22;19219;44.500;11.188;2023-05-10T15:18:45;14.00;99.90
32865;DHT22;19219;44.500;11.188;2023-05-10T15:21:11;14.00;99.90
32865;DHT22;19219;44.500;11.188;2023-05-10T15:23:37;14.00;99.90
32865;DHT22;19219;44.500;11.188;2023-05-10T15:26:03;14.00;99.90
32865;DHT22;19219;44.500;11.188;2023-05-10T15:28:29;14.00;99.90
32865;DHT22;19219;44.500;11.188;2023-05-10T15:30:55;14.00;99.90
32865;DHT22;19219;44.500;11.188;2023-05-10T15:33:21;13.90;99.90
32865;DHT22;19219;44.500;11.188;2023-05-10T15:35:47;13.90;99.90
32865;DHT22;19219;44.500;11.188;2023-05-10T15:38:13;13.90;99.90
32865;DHT22;19219;44.500;11.188;2023-05-10T15:40:38;14.00;99.90
32865;DHT22;19219;44.500;11.188;2023-05-10T15:43:04;14.00;99.90
32865;DHT22;19219;44.500;11.188;2023-05-10T15:45:30;13.90;99.90
32865;DHT22;19219;44.500;11.188;2023-05-10T15:47:57;13.90;99.90
32865;DHT22;19219;44.500;11.188;2023-05-10T15:50:24;13.90;99.90